Temp: 9.7°C   Baro: 991.2mb
  Wind: 2.0mph   Dir: ESE (118°)
  Rain: 3.6mm (0.0mm/hr)
  Solar: 0W/m2  Hum: 89%
 
Bath Spa Weather Station Historical Data
Daily Summary for August 28, 2019 Units:  Both    English   Metric
Daily Weekly Monthly Yearly Custom
  High: Low: Average:
Temperature: 50.6 °F /  10.3 °C 32.9 °F /  0.5 °C 42 °F /  5.6 °C
Dew Point: 44.2 °F /  6.8 °C 31.3 °F /  -0.4 °C 38.4 °F /  3.6 °C
Humidity: 95% 74% 88%
Wind Speed: 6.8mph /  10.9km/h - 1.8mph /  2.9km/h
Wind Gust: 18mph /  29km/h - -
Wind- - ENE
Pressure: 30.30 in /  1026 hPa 30.22 in /  1023.2 hPa -
Precipitation: 0.01 in /  0.25 mm    
Historical Graphs
 
 
Tabular Data for August 28, 2019
Time Temperature Dew Point Pressure Wind Wind Speed Wind Gust Humidity Rainfall Rate (Hourly) solar
00:04 36 °F /  2.2 °C 34.2 °F /  1.2 °C 30.30in /  1026hPa Calm     93% 0.00in /  0mm 0 W/m2
00:09 36 °F /  2.2 °C 34.2 °F /  1.2 °C 30.30in /  1026hPa Calm   1mph /  1.6km/h 93% 0.00in /  0mm 0 W/m2
00:14 36 °F /  2.2 °C 34.2 °F /  1.2 °C 30.30in /  1026hPa Calm   1mph /  1.6km/h 93% 0.00in /  0mm 0 W/m2
00:19 35.8 °F /  2.1 °C 34 °F /  1.1 °C 30.30in /  1026hPa Calm     93% 0.00in /  0mm 0 W/m2
00:24 35.7 °F /  2.1 °C 33.9 °F /  1.1 °C 30.30in /  1026hPa Calm     93% 0.00in /  0mm 0 W/m2
00:29 35.6 °F /  2 °C 33.8 °F /  1 °C 30.30in /  1026hPa Calm     93% 0.00in /  0mm 0 W/m2
00:34 35.4 °F /  1.9 °C 33.6 °F /  0.9 °C 30.30in /  1026hPa Calm     93% 0.00in /  0mm 0 W/m2
00:39 35.4 °F /  1.9 °C 33.6 °F /  0.9 °C 30.30in /  1026hPa Calm     93% 0.00in /  0mm 0 W/m2
00:44 35.4 °F /  1.9 °C 33.6 °F /  0.9 °C 30.30in /  1026hPa Calm     93% 0.00in /  0mm 0 W/m2
00:49 35.4 °F /  1.9 °C 33.6 °F /  0.9 °C 30.30in /  1026hPa Calm     93% 0.00in /  0mm 0 W/m2
00:54 35.4 °F /  1.9 °C 33.6 °F /  0.9 °C 30.30in /  1026hPa Calm     93% 0.00in /  0mm 0 W/m2
00:59 35.2 °F /  1.8 °C 33.4 °F /  0.8 °C 30.30in /  1026hPa Calm     93% 0.00in /  0mm 0 W/m2
01:04 35.2 °F /  1.8 °C 33.4 °F /  0.8 °C 30.30in /  1026hPa Calm     93% 0.00in /  0mm 0 W/m2
01:09 35.2 °F /  1.8 °C 33.4 °F /  0.8 °C 30.30in /  1026hPa Calm     93% 0.00in /  0mm 0 W/m2
01:14 35.2 °F /  1.8 °C 33.4 °F /  0.8 °C 30.29in /  1025.6hPa Calm     93% 0.00in /  0mm 0 W/m2
01:19 35 °F /  1.7 °C 33.2 °F /  0.7 °C 30.29in /  1025.6hPa Calm     93% 0.00in /  0mm 0 W/m2
01:24 34.8 °F /  1.6 °C 33 °F /  0.6 °C 30.29in /  1025.6hPa Calm   1mph /  1.6km/h 93% 0.00in /  0mm 0 W/m2
01:29 34.5 °F /  1.4 °C 32.7 °F /  0.4 °C 30.29in /  1025.6hPa Calm     93% 0.00in /  0mm 0 W/m2
01:34 34.6 °F /  1.4 °C 32.8 °F /  0.4 °C 30.29in /  1025.6hPa Calm     93% 0.00in /  0mm 0 W/m2
01:39 34.5 °F /  1.4 °C 32.7 °F /  0.4 °C 30.29in /  1025.6hPa Calm     93% 0.00in /  0mm 0 W/m2
01:44 34.5 °F /  1.4 °C 32.7 °F /  0.4 °C 30.29in /  1025.6hPa Calm     93% 0.00in /  0mm 0 W/m2
01:49 34.4 °F /  1.3 °C 32.6 °F /  0.3 °C 30.29in /  1025.6hPa Calm   1mph /  1.6km/h 93% 0.01in /  0.25mm 0 W/m2
01:54 34.3 °F /  1.3 °C 32.5 °F /  0.3 °C 30.29in /  1025.6hPa Calm   1mph /  1.6km/h 93% 0.01in /  0.25mm 0 W/m2
01:59 34.3 °F /  1.3 °C 32.5 °F /  0.3 °C 30.29in /  1025.6hPa Calm     93% 0.01in /  0.25mm 0 W/m2
02:04 34.3 °F /  1.3 °C 32.5 °F /  0.3 °C 30.29in /  1025.6hPa Calm     93% 0.01in /  0.25mm 0 W/m2
02:09 34.3 °F /  1.3 °C 32.5 °F /  0.3 °C 30.29in /  1025.6hPa Calm     93% 0.01in /  0.25mm 0 W/m2
02:14 34.3 °F /  1.3 °C 32.5 °F /  0.3 °C 30.29in /  1025.6hPa Calm     93% 0.01in /  0.25mm 0 W/m2
02:19 34.2 °F /  1.2 °C 32.4 °F /  0.2 °C 30.29in /  1025.6hPa Calm     93% 0.01in /  0.25mm 0 W/m2
02:24 34.2 °F /  1.2 °C 32.4 °F /  0.2 °C 30.29in /  1025.6hPa Calm   1mph /  1.6km/h 93% 0.01in /  0.25mm 0 W/m2
02:29 34.2 °F /  1.2 °C 32.4 °F /  0.2 °C 30.29in /  1025.6hPa Calm     93% 0.01in /  0.25mm 0 W/m2
02:34 34.1 °F /  1.2 °C 32.3 °F /  0.2 °C 30.29in /  1025.6hPa Calm     93% 0.01in /  0.25mm 0 W/m2
02:39 34 °F /  1.1 °C 32.3 °F /  0.2 °C 30.29in /  1025.6hPa Calm     93.6% 0.01in /  0.25mm 0 W/m2
02:44 33.9 °F /  1.1 °C 32.3 °F /  0.2 °C 30.29in /  1025.6hPa Calm     93.8% 0.01in /  0.25mm 0 W/m2
02:49 34 °F /  1.1 °C 32.4 °F /  0.2 °C 30.29in /  1025.6hPa Calm     94% 0.01in /  0.25mm 0 W/m2
02:54 33.9 °F /  1.1 °C 32.3 °F /  0.2 °C 30.29in /  1025.6hPa Calm     94% 0.00in /  0mm 0 W/m2
02:59 33.7 °F /  0.9 °C 32.1 °F /  0.1 °C 30.29in /  1025.6hPa Calm     94% 0.00in /  0mm 0 W/m2
03:04 33.6 °F /  0.9 °C 32 °F /  0 °C 30.29in /  1025.6hPa Calm     94% 0.00in /  0mm 0 W/m2
03:09 33.6 °F /  0.9 °C 31.9 °F /  -0.1 °C 30.29in /  1025.6hPa Calm     93.4% 0.00in /  0mm 0 W/m2
03:14 33.5 °F /  0.8 °C 31.8 °F /  -0.1 °C 30.29in /  1025.6hPa Calm     93.8% 0.00in /  0mm 0 W/m2
03:19 33.4 °F /  0.8 °C 31.8 °F /  -0.1 °C 30.29in /  1025.6hPa Calm     94% 0.00in /  0mm 0 W/m2
03:24 33.4 °F /  0.8 °C 31.8 °F /  -0.1 °C 30.29in /  1025.6hPa Calm     94% 0.00in /  0mm 0 W/m2
03:29 33.4 °F /  0.8 °C 31.8 °F /  -0.1 °C 30.29in /  1025.6hPa Calm     94% 0.00in /  0mm 0 W/m2
03:34 33.3 °F /  0.7 °C 31.6 °F /  -0.2 °C 30.29in /  1025.6hPa Calm     94% 0.00in /  0mm 0 W/m2
03:39 33.3 °F /  0.7 °C 31.6 °F /  -0.2 °C 30.29in /  1025.6hPa Calm     94% 0.00in /  0mm 0 W/m2
03:44 33.3 °F /  0.7 °C 31.6 °F /  -0.2 °C 30.28in /  1025.3hPa Calm   1mph /  1.6km/h 94% 0.00in /  0mm 0 W/m2
03:49 33.3 °F /  0.7 °C 31.6 °F /  -0.2 °C 30.29in /  1025.6hPa Calm     94% 0.00in /  0mm 0 W/m2
03:54 33.3 °F /  0.7 °C 31.6 °F /  -0.2 °C 30.28in /  1025.3hPa Calm     94% 0.00in /  0mm 0 W/m2
03:59 33.3 °F /  0.7 °C 31.6 °F /  -0.2 °C 30.29in /  1025.6hPa Calm     94% 0.00in /  0mm 0 W/m2
04:04 33.3 °F /  0.7 °C 31.6 °F /  -0.2 °C 30.29in /  1025.6hPa Calm     94% 0.00in /  0mm 0 W/m2
04:09 33.1 °F /  0.6 °C 31.5 °F /  -0.3 °C 30.29in /  1025.6hPa Calm     94% 0.00in /  0mm 0 W/m2
04:14 33 °F /  0.6 °C 31.4 °F /  -0.3 °C 30.29in /  1025.6hPa Calm     94% 0.00in /  0mm 0 W/m2
04:19 32.9 °F /  0.5 °C 31.3 °F /  -0.4 °C 30.29in /  1025.6hPa Calm     94% 0.00in /  0mm 0 W/m2
04:24 32.9 °F /  0.5 °C 31.3 °F /  -0.4 °C 30.29in /  1025.6hPa Calm     94% 0.00in /  0mm 0 W/m2
04:29 32.9 °F /  0.5 °C 31.3 °F /  -0.4 °C 30.29in /  1025.6hPa Calm     94% 0.00in /  0mm 0 W/m2
04:34 33 °F /  0.6 °C 31.4 °F /  -0.3 °C 30.28in /  1025.3hPa Calm     94% 0.00in /  0mm 0 W/m2
04:39 33 °F /  0.6 °C 31.4 °F /  -0.3 °C 30.29in /  1025.6hPa Calm     94% 0.00in /  0mm 0 W/m2
04:44 33 °F /  0.6 °C 31.4 °F /  -0.3 °C 30.29in /  1025.6hPa Calm     94% 0.00in /  0mm 0 W/m2
04:49 32.9 °F /  0.5 °C 31.3 °F /  -0.4 °C 30.29in /  1025.6hPa Calm     94% 0.00in /  0mm 0 W/m2
04:54 32.9 °F /  0.5 °C 31.3 °F /  -0.4 °C 30.29in /  1025.6hPa Calm     94% 0.00in /  0mm 0 W/m2
04:59 32.9 °F /  0.5 °C 31.3 °F /  -0.4 °C 30.29in /  1025.6hPa Calm     94% 0.00in /  0mm 0 W/m2
05:04 32.9 °F /  0.5 °C 31.3 °F /  -0.4 °C 30.29in /  1025.6hPa Calm     94% 0.00in /  0mm 0 W/m2
05:09 32.9 °F /  0.5 °C 31.3 °F /  -0.4 °C 30.29in /  1025.6hPa Calm     94% 0.00in /  0mm 0 W/m2
05:14 32.9 °F /  0.5 °C 31.3 °F /  -0.4 °C 30.28in /  1025.3hPa Calm     94% 0.00in /  0mm 0 W/m2
05:19 32.9 °F /  0.5 °C 31.3 °F /  -0.4 °C 30.28in /  1025.3hPa Calm     94% 0.00in /  0mm 0 W/m2
05:24 32.9 °F /  0.5 °C 31.3 °F /  -0.4 °C 30.28in /  1025.3hPa Calm     94% 0.00in /  0mm 0 W/m2
05:29 33.1 °F /  0.6 °C 31.5 °F /  -0.3 °C 30.28in /  1025.3hPa Calm     94% 0.00in /  0mm 0 W/m2
05:34 33.1 °F /  0.6 °C 31.5 °F /  -0.3 °C 30.28in /  1025.3hPa Calm     94% 0.00in /  0mm 0 W/m2
05:39 33.1 °F /  0.6 °C 31.5 °F /  -0.3 °C 30.28in /  1025.3hPa Calm     94% 0.00in /  0mm 0 W/m2
05:44 33.1 °F /  0.6 °C 31.5 °F /  -0.3 °C 30.28in /  1025.3hPa Calm     94% 0.00in /  0mm 0 W/m2
05:49 33.2 °F /  0.7 °C 31.6 °F /  -0.2 °C 30.28in /  1025.3hPa Calm     94% 0.00in /  0mm 0 W/m2
05:54 33.1 °F /  0.6 °C 31.5 °F /  -0.3 °C 30.28in /  1025.3hPa Calm     94% 0.00in /  0mm 0 W/m2
05:59 33.1 °F /  0.6 °C 31.5 °F /  -0.3 °C 30.27in /  1024.9hPa Calm     94% 0.00in /  0mm 0 W/m2
06:04 33.3 °F /  0.7 °C 31.6 °F /  -0.2 °C 30.27in /  1024.9hPa Calm     94% 0.00in /  0mm 0 W/m2
06:09 33.3 °F /  0.7 °C 31.6 °F /  -0.2 °C 30.27in /  1024.9hPa Calm   1mph /  1.6km/h 94% 0.00in /  0mm 0 W/m2
06:14 33.2 °F /  0.7 °C 31.5 °F /  -0.3 °C 30.27in /  1024.9hPa Calm     94% 0.00in /  0mm 0 W/m2
06:19 33.2 °F /  0.7 °C 31.5 °F /  -0.3 °C 30.27in /  1024.9hPa Calm   1mph /  1.6km/h 94% 0.00in /  0mm 0 W/m2
06:24 33.3 °F /  0.7 °C 31.6 °F /  -0.2 °C 30.28in /  1025.3hPa Calm     94% 0.00in /  0mm 0 W/m2
06:29 33.3 °F /  0.7 °C 31.6 °F /  -0.2 °C 30.28in /  1025.3hPa Calm   1mph /  1.6km/h 94% 0.00in /  0mm 0 W/m2
06:34 33.3 °F /  0.7 °C 31.7 °F /  -0.2 °C 30.27in /  1024.9hPa Calm   1mph /  1.6km/h 94% 0.00in /  0mm 0 W/m2
06:39 33.4 °F /  0.8 °C 31.8 °F /  -0.1 °C 30.27in /  1024.9hPa Calm     94% 0.00in /  0mm 0 W/m2
06:44 33.4 °F /  0.8 °C 31.8 °F /  -0.1 °C 30.27in /  1024.9hPa Calm     94% 0.00in /  0mm 0 W/m2
06:49 33.4 °F /  0.8 °C 31.8 °F /  -0.1 °C 30.27in /  1024.9hPa Calm     94% 0.00in /  0mm 0 W/m2
06:54 33.4 °F /  0.8 °C 31.8 °F /  -0.1 °C 30.27in /  1024.9hPa Calm     94% 0.00in /  0mm 5 W/m2
06:59 33.4 °F /  0.8 °C 31.8 °F /  -0.1 °C 30.27in /  1024.9hPa Calm     94% 0.00in /  0mm 7 W/m2
07:04 33.4 °F /  0.8 °C 31.8 °F /  -0.1 °C 30.27in /  1024.9hPa Calm     94% 0.00in /  0mm 11 W/m2
07:09 33.3 °F /  0.7 °C 31.7 °F /  -0.2 °C 30.28in /  1025.3hPa Calm     94% 0.00in /  0mm 14 W/m2
07:14 33.3 °F /  0.7 °C 31.6 °F /  -0.2 °C 30.28in /  1025.3hPa Calm     94% 0.00in /  0mm 19 W/m2
07:19 33.3 °F /  0.7 °C 31.6 °F /  -0.2 °C 30.28in /  1025.3hPa Calm     94% 0.00in /  0mm 25 W/m2
07:24 33.3 °F /  0.7 °C 31.6 °F /  -0.2 °C 30.28in /  1025.3hPa Calm     94% 0.00in /  0mm 30 W/m2
07:29 33.4 °F /  0.8 °C 31.8 °F /  -0.1 °C 30.28in /  1025.3hPa Calm   1mph /  1.6km/h 94% 0.00in /  0mm 35 W/m2
07:34 33.5 °F /  0.8 °C 31.9 °F /  -0.1 °C 30.28in /  1025.3hPa Calm   1mph /  1.6km/h 94% 0.00in /  0mm 42 W/m2
07:39 33.7 °F /  0.9 °C 32.2 °F /  0.1 °C 30.28in /  1025.3hPa Calm     94.3% 0.00in /  0mm 47 W/m2
07:44 34 °F /  1.1 °C 32.4 °F /  0.2 °C 30.28in /  1025.3hPa Calm     94.1% 0.00in /  0mm 49 W/m2
07:49 34.1 °F /  1.2 °C 32.4 °F /  0.2 °C 30.29in /  1025.6hPa Calm     94% 0.00in /  0mm 53 W/m2
07:54 34.3 °F /  1.3 °C 32.9 °F /  0.5 °C 30.29in /  1025.6hPa Calm     94.6% 0.00in /  0mm 58 W/m2
07:59 34.3 °F /  1.3 °C 33.1 °F /  0.6 °C 30.28in /  1025.3hPa Calm     95% 0.00in /  0mm 62 W/m2
08:04 34.4 °F /  1.3 °C 33.2 °F /  0.7 °C 30.28in /  1025.3hPa Calm     95% 0.00in /  0mm 67 W/m2
08:09 34.7 °F /  1.5 °C 33.4 °F /  0.8 °C 30.28in /  1025.3hPa Calm     95% 0.00in /  0mm 74 W/m2
08:14 35 °F /  1.7 °C 33.7 °F /  0.9 °C 30.28in /  1025.3hPa Calm     95% 0.00in /  0mm 81 W/m2
08:19 35.1 °F /  1.7 °C 33.9 °F /  1.1 °C 30.28in /  1025.3hPa Calm     95% 0.00in /  0mm 88 W/m2
08:24 35.9 °F /  2.2 °C 34.6 °F /  1.4 °C 30.28in /  1025.3hPa Calm   1mph /  1.6km/h 95% 0.00in /  0mm 97 W/m2
08:29 35.9 °F /  2.2 °C 34.6 °F /  1.4 °C 30.28in /  1025.3hPa North 0.1mph /  0.2km/h 1mph /  1.6km/h 95% 0.00in /  0mm 97 W/m2
08:34 36.1 °F /  2.3 °C 34.8 °F /  1.6 °C 30.28in /  1025.3hPa Calm     95% 0.00in /  0mm 100 W/m2
08:39 36.2 °F /  2.3 °C 35 °F /  1.7 °C 30.28in /  1025.3hPa Calm     95% 0.00in /  0mm 113 W/m2
08:44 36.9 °F /  2.7 °C 35.6 °F /  2 °C 30.28in /  1025.3hPa Calm   1mph /  1.6km/h 95% 0.00in /  0mm 118 W/m2
08:49 37.5 °F /  3.1 °C 36.3 °F /  2.4 °C 30.28in /  1025.3hPa North 0.2mph /  0.3km/h 3mph /  4.8km/h 95% 0.00in /  0mm 134 W/m2
08:54 38.3 °F /  3.5 °C 37 °F /  2.8 °C 30.28in /  1025.3hPa North 0.5mph /  0.8km/h 3mph /  4.8km/h 95% 0.00in /  0mm 137 W/m2
08:59 39 °F /  3.9 °C 37.8 °F /  3.2 °C 30.28in /  1025.3hPa North 0.5mph /  0.8km/h 3mph /  4.8km/h 95% 0.00in /  0mm 137 W/m2
09:04 39.4 °F /  4.1 °C 38.1 °F /  3.4 °C 30.28in /  1025.3hPa North 0.3mph /  0.5km/h 3mph /  4.8km/h 95% 0.00in /  0mm 132 W/m2
09:09 39.8 °F /  4.3 °C 38.5 °F /  3.6 °C 30.28in /  1025.3hPa North 0.2mph /  0.3km/h 1mph /  1.6km/h 95% 0.00in /  0mm 139 W/m2
09:14 40.6 °F /  4.8 °C 39.3 °F /  4.1 °C 30.28in /  1025.3hPa North 0.1mph /  0.2km/h 2mph /  3.2km/h 95% 0.00in /  0mm 148 W/m2
09:19 41.2 °F /  5.1 °C 39.9 °F /  4.4 °C 30.28in /  1025.3hPa Calm   1mph /  1.6km/h 95% 0.00in /  0mm 169 W/m2
09:24 41.6 °F /  5.3 °C 40.3 °F /  4.6 °C 30.28in /  1025.3hPa North 0.5mph /  0.8km/h 4mph /  6.4km/h 95% 0.00in /  0mm 174 W/m2
09:29 42.6 °F /  5.9 °C 41.3 °F /  5.2 °C 30.28in /  1025.3hPa North 0.4mph /  0.6km/h 3mph /  4.8km/h 95% 0.00in /  0mm 169 W/m2
09:34 42.6 °F /  5.9 °C 41.4 °F /  5.2 °C 30.28in /  1025.3hPa East 1.4mph /  2.3km/h 8mph /  12.9km/h 95% 0.00in /  0mm 171 W/m2
09:39 42.9 °F /  6.1 °C 41.6 °F /  5.3 °C 30.28in /  1025.3hPa East 0.5mph /  0.8km/h 3mph /  4.8km/h 95% 0.00in /  0mm 171 W/m2
09:44 43.2 °F /  6.2 °C 41.7 °F /  5.4 °C 30.27in /  1024.9hPa East 1mph /  1.6km/h 6mph /  9.7km/h 94.4% 0.00in /  0mm 176 W/m2
09:49 43.3 °F /  6.3 °C 41.7 °F /  5.4 °C 30.27in /  1024.9hPa East 0.9mph /  1.4km/h 5mph /  8km/h 94% 0.00in /  0mm 171 W/m2
09:54 43.5 °F /  6.4 °C 41.9 °F /  5.5 °C 30.27in /  1024.9hPa East 1mph /  1.6km/h 5mph /  8km/h 94% 0.00in /  0mm 204 W/m2
09:59 44 °F /  6.7 °C 42.1 °F /  5.6 °C 30.28in /  1025.3hPa East 0.7mph /  1.1km/h 5mph /  8km/h 93% 0.00in /  0mm 218 W/m2
10:04 44.7 °F /  7.1 °C 42.6 °F /  5.9 °C 30.28in /  1025.3hPa East 1.5mph /  2.4km/h 7mph /  11.3km/h 92.6% 0.00in /  0mm 214 W/m2
10:09 44.7 °F /  7.1 °C 42.3 °F /  5.7 °C 30.28in /  1025.3hPa East 0.8mph /  1.3km/h 4mph /  6.4km/h 91.5% 0.00in /  0mm 174 W/m2
10:14 44.5 °F /  6.9 °C 42 °F /  5.6 °C 30.28in /  1025.3hPa East 0.8mph /  1.3km/h 4mph /  6.4km/h 90.6% 0.00in /  0mm 174 W/m2
10:19 44.3 °F /  6.8 °C 41.6 °F /  5.3 °C 30.28in /  1025.3hPa East 0.6mph /  1km/h 2mph /  3.2km/h 90% 0.00in /  0mm 195 W/m2
10:24 44.3 °F /  6.8 °C 41.4 °F /  5.2 °C 30.28in /  1025.3hPa East 0.8mph /  1.3km/h 3mph /  4.8km/h 89.4% 0.00in /  0mm 195 W/m2
10:29 44.4 °F /  6.9 °C 41.4 °F /  5.2 °C 30.28in /  1025.3hPa East 1.1mph /  1.8km/h 4mph /  6.4km/h 89% 0.00in /  0mm 179 W/m2
10:34 44.9 °F /  7.2 °C 41.8 °F /  5.4 °C 30.28in /  1025.3hPa East 0.5mph /  0.8km/h 3mph /  4.8km/h 89% 0.00in /  0mm 193 W/m2
10:39 44.9 °F /  7.2 °C 41.8 °F /  5.4 °C 30.28in /  1025.3hPa East 1.1mph /  1.8km/h 4mph /  6.4km/h 89% 0.00in /  0mm 218 W/m2
10:44 45.2 °F /  7.3 °C 42.1 °F /  5.6 °C 30.28in /  1025.3hPa East 1.2mph /  1.9km/h 5mph /  8km/h 88.8% 0.00in /  0mm 257 W/m2
10:49 45 °F /  7.2 °C 41.5 °F /  5.3 °C 30.28in /  1025.3hPa East 0.8mph /  1.3km/h 4mph /  6.4km/h 88% 0.00in /  0mm 258 W/m2
10:54 45.7 °F /  7.6 °C 42.3 °F /  5.7 °C 30.27in /  1024.9hPa East 0.5mph /  0.8km/h 4mph /  6.4km/h 88% 0.00in /  0mm 264 W/m2
10:59 45.9 °F /  7.7 °C 42.3 °F /  5.7 °C 30.27in /  1024.9hPa East 1.5mph /  2.4km/h 5mph /  8km/h 87.4% 0.00in /  0mm 265 W/m2
11:04 46.1 °F /  7.8 °C 42.5 °F /  5.8 °C 30.27in /  1024.9hPa East 1.2mph /  1.9km/h 5mph /  8km/h 87% 0.00in /  0mm 232 W/m2
11:09 46.2 °F /  7.9 °C 42.6 °F /  5.9 °C 30.27in /  1024.9hPa East 0.9mph /  1.4km/h 4mph /  6.4km/h 87% 0.00in /  0mm 207 W/m2
11:14 46.5 °F /  8.1 °C 42.7 °F /  5.9 °C 30.27in /  1024.9hPa East 0.6mph /  1km/h 3mph /  4.8km/h 86.5% 0.00in /  0mm 199 W/m2
11:19 46.3 °F /  7.9 °C 42.4 °F /  5.8 °C 30.27in /  1024.9hPa Calm   1mph /  1.6km/h 86% 0.00in /  0mm 204 W/m2
11:24 47 °F /  8.3 °C 43 °F /  6.1 °C 30.27in /  1024.9hPa East 0.8mph /  1.3km/h 5mph /  8km/h 86% 0.00in /  0mm 204 W/m2
11:29 47.1 °F /  8.4 °C 43.2 °F /  6.2 °C 30.27in /  1024.9hPa East 0.8mph /  1.3km/h 5mph /  8km/h 86% 0.00in /  0mm 179 W/m2
11:34 46.9 °F /  8.3 °C 42.8 °F /  6 °C 30.27in /  1024.9hPa ENE 3.7mph /  6km/h 8mph /  12.9km/h 85.6% 0.00in /  0mm 167 W/m2
11:39 46.7 °F /  8.2 °C 42.4 °F /  5.8 °C 30.27in /  1024.9hPa NE 2.3mph /  3.7km/h 8mph /  12.9km/h 85% 0.00in /  0mm 162 W/m2
11:44 46.8 °F /  8.2 °C 42.4 °F /  5.8 °C 30.27in /  1024.9hPa NE 3.2mph /  5.1km/h 8mph /  12.9km/h 85% 0.00in /  0mm 176 W/m2
11:49 46.8 °F /  8.2 °C 42.5 °F /  5.8 °C 30.27in /  1024.9hPa NE 1.5mph /  2.4km/h 7mph /  11.3km/h 85% 0.00in /  0mm 199 W/m2
11:54 47 °F /  8.3 °C 42.7 °F /  5.9 °C 30.27in /  1024.9hPa ENE 1.2mph /  1.9km/h 5mph /  8km/h 85% 0.00in /  0mm 216 W/m2
11:59 47.2 °F /  8.4 °C 42.9 °F /  6.1 °C 30.27in /  1024.9hPa ENE 1.2mph /  1.9km/h 4mph /  6.4km/h 85% 0.00in /  0mm 236 W/m2
12:04 47.5 °F /  8.6 °C 42.9 °F /  6.1 °C 30.26in /  1024.6hPa ENE 1.9mph /  3.1km/h 5mph /  8km/h 84.4% 0.00in /  0mm 236 W/m2
12:09 47.7 °F /  8.7 °C 43 °F /  6.1 °C 30.26in /  1024.6hPa East 2.6mph /  4.2km/h 8mph /  12.9km/h 84% 0.00in /  0mm 236 W/m2
12:14 47.8 °F /  8.8 °C 43.2 °F /  6.2 °C 30.25in /  1024.3hPa East 4mph /  6.4km/h 8mph /  12.9km/h 84% 0.00in /  0mm 260 W/m2
12:19 48 °F /  8.9 °C 43.3 °F /  6.3 °C 30.25in /  1024.3hPa ESE 2.3mph /  3.7km/h 8mph /  12.9km/h 83.6% 0.00in /  0mm 267 W/m2
12:24 48.7 °F /  9.3 °C 43.9 °F /  6.6 °C 30.25in /  1024.3hPa East 1.6mph /  2.6km/h 5mph /  8km/h 83.2% 0.00in /  0mm 294 W/m2
12:29 49.3 °F /  9.6 °C 44.2 °F /  6.8 °C 30.24in /  1023.9hPa ENE 2.1mph /  3.4km/h 8mph /  12.9km/h 82.5% 0.00in /  0mm 304 W/m2
12:34 49.4 °F /  9.7 °C 43.9 °F /  6.6 °C 30.24in /  1023.9hPa East 1.4mph /  2.3km/h 7mph /  11.3km/h 81.2% 0.00in /  0mm 304 W/m2
12:39 49.5 °F /  9.7 °C 43.5 °F /  6.4 °C 30.24in /  1023.9hPa ESE 2.6mph /  4.2km/h 8mph /  12.9km/h 80.2% 0.00in /  0mm 253 W/m2
12:44 49.5 °F /  9.7 °C 43.5 °F /  6.4 °C 30.24in /  1023.9hPa ENE 1.9mph /  3.1km/h 9mph /  14.5km/h 80% 0.00in /  0mm 188 W/m2
12:49 49.4 °F /  9.7 °C 43.4 °F /  6.3 °C 30.24in /  1023.9hPa NE 2.3mph /  3.7km/h 9mph /  14.5km/h 80% 0.00in /  0mm 199 W/m2
12:54 49.2 °F /  9.6 °C 43 °F /  6.1 °C 30.24in /  1023.9hPa ENE 4.2mph /  6.8km/h 10mph /  16.1km/h 79.4% 0.00in /  0mm 216 W/m2
12:59 49.1 °F /  9.5 °C 42.8 °F /  6 °C 30.24in /  1023.9hPa East 3.7mph /  6km/h 11mph /  17.7km/h 79% 0.00in /  0mm 216 W/m2
13:04 49.1 °F /  9.5 °C 42.8 °F /  6 °C 30.24in /  1023.9hPa East 4.2mph /  6.8km/h 11mph /  17.7km/h 79% 0.00in /  0mm 204 W/m2
13:09 49.2 °F /  9.6 °C 42.9 °F /  6.1 °C 30.24in /  1023.9hPa East 2.8mph /  4.5km/h 8mph /  12.9km/h 78.7% 0.00in /  0mm 186 W/m2
13:14 49.1 °F /  9.5 °C 42.6 °F /  5.9 °C 30.24in /  1023.9hPa ESE 2.4mph /  3.9km/h 6mph /  9.7km/h 78% 0.00in /  0mm 174 W/m2
13:19 49.2 °F /  9.6 °C 42.7 °F /  5.9 °C 30.24in /  1023.9hPa ESE 3.2mph /  5.1km/h 11mph /  17.7km/h 78.3% 0.00in /  0mm 190 W/m2
13:24 49.3 °F /  9.6 °C 42.8 °F /  6 °C 30.24in /  1023.9hPa East 1.9mph /  3.1km/h 9mph /  14.5km/h 78% 0.00in /  0mm 197 W/m2
13:29 49.5 °F /  9.7 °C 42.9 °F /  6.1 °C 30.24in /  1023.9hPa East 2.8mph /  4.5km/h 7mph /  11.3km/h 78.3% 0.00in /  0mm 200 W/m2
13:34 49.4 °F /  9.7 °C 42.8 °F /  6 °C 30.24in /  1023.9hPa ESE 4.3mph /  6.9km/h 10mph /  16.1km/h 78% 0.00in /  0mm 200 W/m2
13:39 49.2 °F /  9.6 °C 42.5 °F /  5.8 °C 30.24in /  1023.9hPa ESE 4.4mph /  7.1km/h 11mph /  17.7km/h 77.4% 0.00in /  0mm 204 W/m2
13:44 49.2 °F /  9.6 °C 42.4 °F /  5.8 °C 30.24in /  1023.9hPa ESE 2.8mph /  4.5km/h 9mph /  14.5km/h 77% 0.00in /  0mm 204 W/m2
13:49 49.4 °F /  9.7 °C 42.6 °F /  5.9 °C 30.24in /  1023.9hPa ESE 3.3mph /  5.3km/h 9mph /  14.5km/h 77.6% 0.00in /  0mm 258 W/m2
13:54 49.5 °F /  9.7 °C 42.8 °F /  6 °C 30.24in /  1023.9hPa ESE 4mph /  6.4km/h 10mph /  16.1km/h 78% 0.00in /  0mm 302 W/m2
13:59 50.3 °F /  10.2 °C 43.6 °F /  6.4 °C 30.24in /  1023.9hPa ESE 3.3mph /  5.3km/h 9mph /  14.5km/h 78% 0.00in /  0mm 294 W/m2
14:04 50.6 °F /  10.3 °C 43.6 °F /  6.4 °C 30.24in /  1023.9hPa ESE 3.6mph /  5.8km/h 9mph /  14.5km/h 76.9% 0.00in /  0mm 236 W/m2
14:09 50.4 °F /  10.2 °C 43.2 °F /  6.2 °C 30.24in /  1023.9hPa East 3.6mph /  5.8km/h 9mph /  14.5km/h 76% 0.00in /  0mm 216 W/m2
14:14 50.3 °F /  10.2 °C 43.1 °F /  6.2 °C 30.24in /  1023.9hPa NE 3.1mph /  5km/h 9mph /  14.5km/h 76.2% 0.00in /  0mm 195 W/m2
14:19 50.2 °F /  10.1 °C 43.1 °F /  6.2 °C 30.24in /  1023.9hPa NE 3.4mph /  5.5km/h 9mph /  14.5km/h 76.4% 0.00in /  0mm 239 W/m2
14:24 50.3 °F /  10.2 °C 43.1 °F /  6.2 °C 30.24in /  1023.9hPa NE 1.4mph /  2.3km/h 5mph /  8km/h 76.4% 0.00in /  0mm 244 W/m2
14:29 50.5 °F /  10.3 °C 43.4 °F /  6.3 °C 30.24in /  1023.9hPa NNE 1.5mph /  2.4km/h 5mph /  8km/h 76.1% 0.00in /  0mm 227 W/m2
14:34 50.6 °F /  10.3 °C 43.4 °F /  6.3 °C 30.24in /  1023.9hPa NE 3.6mph /  5.8km/h 10mph /  16.1km/h 76.1% 0.00in /  0mm 171 W/m2
14:39 50.5 °F /  10.3 °C 43.3 °F /  6.3 °C 30.23in /  1023.6hPa East 1.6mph /  2.6km/h 10mph /  16.1km/h 76% 0.00in /  0mm 123 W/m2
14:44 50.4 °F /  10.2 °C 43.1 °F /  6.2 °C 30.23in /  1023.6hPa ENE 4.9mph /  7.9km/h 12mph /  19.3km/h 75.7% 0.00in /  0mm 125 W/m2
14:49 49.9 °F /  9.9 °C 42.3 °F /  5.7 °C 30.23in /  1023.6hPa ENE 5mph /  8km/h 14mph /  22.5km/h 74.7% 0.00in /  0mm 127 W/m2
14:54 49.6 °F /  9.8 °C 41.7 °F /  5.4 °C 30.23in /  1023.6hPa East 4.6mph /  7.4km/h 12mph /  19.3km/h 74% 0.00in /  0mm 127 W/m2
14:59 49.7 °F /  9.8 °C 41.8 °F /  5.4 °C 30.23in /  1023.6hPa East 3.6mph /  5.8km/h 12mph /  19.3km/h 74% 0.00in /  0mm 113 W/m2
15:04 49.6 °F /  9.8 °C 41.9 °F /  5.5 °C 30.23in /  1023.6hPa East 5.5mph /  8.9km/h 13mph /  20.9km/h 74.4% 0.00in /  0mm 83 W/m2
15:09 49.6 °F /  9.8 °C 42 °F /  5.6 °C 30.23in /  1023.6hPa ENE 3.6mph /  5.8km/h 13mph /  20.9km/h 75% 0.00in /  0mm 76 W/m2
15:14 49.5 °F /  9.7 °C 42 °F /  5.6 °C 30.23in /  1023.6hPa ENE 3.9mph /  6.3km/h 9mph /  14.5km/h 75.2% 0.00in /  0mm 70 W/m2
15:19 49.3 °F /  9.6 °C 42.1 °F /  5.6 °C 30.23in /  1023.6hPa ENE 2.3mph /  3.7km/h 9mph /  14.5km/h 76% 0.00in /  0mm 62 W/m2
15:24 49.3 °F /  9.6 °C 42.1 °F /  5.6 °C 30.23in /  1023.6hPa East 4.4mph /  7.1km/h 12mph /  19.3km/h 76% 0.00in /  0mm 56 W/m2
15:29 49.2 °F /  9.6 °C 42 °F /  5.6 °C 30.23in /  1023.6hPa East 5mph /  8km/h 12mph /  19.3km/h 76% 0.00in /  0mm 51 W/m2
15:31 49 °F /  9.4 °C 41.8 °F /  5.4 °C 30.23in /  1023.6hPa NE 2.6mph /  4.2km/h 10mph /  16.1km/h 76% 0.00in /  0mm 51 W/m2
15:49 48.7 °F /  9.3 °C 41.9 °F /  5.5 °C 30.23in /  1023.6hPa ESE 2.5mph /  4km/h 7mph /  11.3km/h 77% 0.00in /  0mm 40 W/m2
15:54 48.7 °F /  9.3 °C 41.9 °F /  5.5 °C 30.23in /  1023.6hPa ENE 2.9mph /  4.7km/h 7mph /  11.3km/h 77.2% 0.00in /  0mm 40 W/m2
15:59 48.6 °F /  9.2 °C 42.1 °F /  5.6 °C 30.23in /  1023.6hPa East 3.9mph /  6.3km/h 11mph /  17.7km/h 78% 0.00in /  0mm 35 W/m2
16:04 48.6 °F /  9.2 °C 42.1 °F /  5.6 °C 30.23in /  1023.6hPa East 3.3mph /  5.3km/h 9mph /  14.5km/h 78% 0.00in /  0mm 28 W/m2
16:09 48.5 °F /  9.2 °C 42 °F /  5.6 °C 30.23in /  1023.6hPa ENE 4mph /  6.4km/h 10mph /  16.1km/h 78% 0.00in /  0mm 26 W/m2
16:14 48.4 °F /  9.1 °C 42.2 °F /  5.7 °C 30.23in /  1023.6hPa NE 2.4mph /  3.9km/h 10mph /  16.1km/h 78.7% 0.00in /  0mm 26 W/m2
16:19 48.3 °F /  9.1 °C 42.2 °F /  5.7 °C 30.22in /  1023.2hPa ENE 2.5mph /  4km/h 9mph /  14.5km/h 79% 0.00in /  0mm 25 W/m2
16:24 48.2 °F /  9 °C 42.1 °F /  5.6 °C 30.22in /  1023.2hPa ENE 1.6mph /  2.6km/h 6mph /  9.7km/h 79% 0.00in /  0mm 23 W/m2
16:29 48.1 °F /  8.9 °C 42.1 °F /  5.6 °C 30.23in /  1023.6hPa ENE 3.8mph /  6.1km/h 9mph /  14.5km/h 79.7% 0.00in /  0mm 19 W/m2
16:34 48 °F /  8.9 °C 42.1 °F /  5.6 °C 30.23in /  1023.6hPa ENE 4.7mph /  7.6km/h 10mph /  16.1km/h 80% 0.00in /  0mm 14 W/m2
16:39 47.8 °F /  8.8 °C 41.9 °F /  5.5 °C 30.23in /  1023.6hPa NE 2.7mph /  4.3km/h 10mph /  16.1km/h 80% 0.00in /  0mm 11 W/m2
16:44 47.8 °F /  8.8 °C 41.8 °F /  5.4 °C 30.23in /  1023.6hPa NE 3.8mph /  6.1km/h 10mph /  16.1km/h 80% 0.00in /  0mm 7 W/m2
16:49 47.6 °F /  8.7 °C 41.6 °F /  5.3 °C 30.23in /  1023.6hPa NE 4.4mph /  7.1km/h 10mph /  16.1km/h 80% 0.00in /  0mm 0 W/m2
16:54 47.4 °F /  8.6 °C 41.5 °F /  5.3 °C 30.22in /  1023.2hPa ENE 4.2mph /  6.8km/h 10mph /  16.1km/h 80% 0.00in /  0mm 0 W/m2
16:59 47.3 °F /  8.5 °C 41.7 °F /  5.4 °C 30.23in /  1023.6hPa ENE 2.6mph /  4.2km/h 10mph /  16.1km/h 80.9% 0.00in /  0mm 0 W/m2
17:04 47.1 °F /  8.4 °C 41.5 °F /  5.3 °C 30.22in /  1023.2hPa NE 2.8mph /  4.5km/h 8mph /  12.9km/h 81% 0.00in /  0mm 0 W/m2
17:09 47.1 °F /  8.4 °C 41.4 °F /  5.2 °C 30.22in /  1023.2hPa ENE 3.7mph /  6km/h 8mph /  12.9km/h 80.4% 0.00in /  0mm 0 W/m2
17:14 47 °F /  8.3 °C 41.5 °F /  5.3 °C 30.22in /  1023.2hPa NE 3.3mph /  5.3km/h 9mph /  14.5km/h 81% 0.00in /  0mm 0 W/m2
17:19 46.9 °F /  8.3 °C 41.4 °F /  5.2 °C 30.22in /  1023.2hPa NE 4.1mph /  6.6km/h 10mph /  16.1km/h 81% 0.00in /  0mm 0 W/m2
17:24 46.9 °F /  8.3 °C 41.4 °F /  5.2 °C 30.22in /  1023.2hPa ENE 4.2mph /  6.8km/h 10mph /  16.1km/h 81% 0.00in /  0mm 0 W/m2
17:29 46.8 °F /  8.2 °C 41.3 °F /  5.2 °C 30.22in /  1023.2hPa ENE 2.4mph /  3.9km/h 8mph /  12.9km/h 81% 0.00in /  0mm 0 W/m2
17:34 46.8 °F /  8.2 °C 41.3 °F /  5.2 °C 30.22in /  1023.2hPa ENE 2.9mph /  4.7km/h 9mph /  14.5km/h 81.4% 0.00in /  0mm 0 W/m2
17:39 46.8 °F /  8.2 °C 41.5 °F /  5.3 °C 30.22in /  1023.2hPa East 2.3mph /  3.7km/h 9mph /  14.5km/h 82% 0.00in /  0mm 0 W/m2
17:44 46.6 °F /  8.1 °C 41.4 °F /  5.2 °C 30.23in /  1023.6hPa East 2.3mph /  3.7km/h 8mph /  12.9km/h 82% 0.00in /  0mm 0 W/m2
17:49 46.6 °F /  8.1 °C 41.4 °F /  5.2 °C 30.23in /  1023.6hPa East 3.8mph /  6.1km/h 10mph /  16.1km/h 82% 0.00in /  0mm 0 W/m2
17:54 46.6 °F /  8.1 °C 41.4 °F /  5.2 °C 30.23in /  1023.6hPa ENE 3.7mph /  6km/h 12mph /  19.3km/h 82.1% 0.00in /  0mm 0 W/m2
17:59 46.6 °F /  8.1 °C 41.7 °F /  5.4 °C 30.23in /  1023.6hPa East 3.4mph /  5.5km/h 10mph /  16.1km/h 83% 0.00in /  0mm 0 W/m2
18:04 46.5 °F /  8.1 °C 41.6 °F /  5.3 °C 30.23in /  1023.6hPa ENE 3mph /  4.8km/h 8mph /  12.9km/h 83% 0.00in /  0mm 0 W/m2
18:09 46.4 °F /  8 °C 41.5 °F /  5.3 °C 30.23in /  1023.6hPa NE 1.9mph /  3.1km/h 8mph /  12.9km/h 83% 0.00in /  0mm 0 W/m2
18:14 46.4 °F /  8 °C 41.5 °F /  5.3 °C 30.23in /  1023.6hPa NE 1.2mph /  1.9km/h 6mph /  9.7km/h 83% 0.00in /  0mm 0 W/m2
18:19 46.3 °F /  7.9 °C 41.6 °F /  5.3 °C 30.23in /  1023.6hPa NE 2.3mph /  3.7km/h 7mph /  11.3km/h 83.3% 0.00in /  0mm 0 W/m2
18:24 46.2 °F /  7.9 °C 41.7 °F /  5.4 °C 30.23in /  1023.6hPa East 3.2mph /  5.1km/h 8mph /  12.9km/h 84% 0.00in /  0mm 0 W/m2
18:29 46.2 °F /  7.9 °C 41.7 °F /  5.4 °C 30.23in /  1023.6hPa East 3.9mph /  6.3km/h 9mph /  14.5km/h 84% 0.00in /  0mm 0 W/m2
18:34 46.3 °F /  7.9 °C 41.8 °F /  5.4 °C 30.23in /  1023.6hPa ENE 3.3mph /  5.3km/h 9mph /  14.5km/h 84% 0.00in /  0mm 0 W/m2
18:39 46.3 °F /  7.9 °C 41.8 °F /  5.4 °C 30.23in /  1023.6hPa East 2.6mph /  4.2km/h 7mph /  11.3km/h 84% 0.00in /  0mm 0 W/m2
18:44 46.3 °F /  7.9 °C 41.8 °F /  5.4 °C 30.23in /  1023.6hPa East 1.7mph /  2.7km/h 6mph /  9.7km/h 84% 0.00in /  0mm 0 W/m2
18:49 46.2 °F /  7.9 °C 41.7 °F /  5.4 °C 30.23in /  1023.6hPa East 2.6mph /  4.2km/h 11mph /  17.7km/h 84% 0.00in /  0mm 0 W/m2
18:54 46.3 °F /  7.9 °C 41.8 °F /  5.4 °C 30.23in /  1023.6hPa East 2.7mph /  4.3km/h 9mph /  14.5km/h 84% 0.00in /  0mm 0 W/m2
18:59 46.3 °F /  7.9 °C 41.8 °F /  5.4 °C 30.23in /  1023.6hPa ENE 2.4mph /  3.9km/h 8mph /  12.9km/h 84.1% 0.00in /  0mm 0 W/m2
19:04 46.2 °F /  7.9 °C 41.9 °F /  5.5 °C 30.24in /  1023.9hPa East 2.2mph /  3.5km/h 9mph /  14.5km/h 85% 0.00in /  0mm 0 W/m2
19:09 46.2 °F /  7.9 °C 41.9 °F /  5.5 °C 30.24in /  1023.9hPa ESE 2.2mph /  3.5km/h 6mph /  9.7km/h 85% 0.00in /  0mm 0 W/m2
19:14 46.2 °F /  7.9 °C 41.9 °F /  5.5 °C 30.24in /  1023.9hPa East 1.8mph /  2.9km/h 5mph /  8km/h 85% 0.00in /  0mm 0 W/m2
19:19 46.2 °F /  7.9 °C 41.9 °F /  5.5 °C 30.24in /  1023.9hPa ENE 1.6mph /  2.6km/h 7mph /  11.3km/h 85% 0.00in /  0mm 0 W/m2
19:24 46.2 °F /  7.9 °C 41.9 °F /  5.5 °C 30.24in /  1023.9hPa ENE 2.1mph /  3.4km/h 10mph /  16.1km/h 85% 0.00in /  0mm 0 W/m2
19:29 46.2 °F /  7.9 °C 41.9 °F /  5.5 °C 30.23in /  1023.6hPa East 2.5mph /  4km/h 7mph /  11.3km/h 85% 0.00in /  0mm 0 W/m2
19:34 46.2 °F /  7.9 °C 42 °F /  5.6 °C 30.24in /  1023.9hPa ESE 1.5mph /  2.4km/h 7mph /  11.3km/h 85.3% 0.00in /  0mm 0 W/m2
19:39 46.2 °F /  7.9 °C 42.3 °F /  5.7 °C 30.24in /  1023.9hPa East 1.8mph /  2.9km/h 7mph /  11.3km/h 86% 0.00in /  0mm 0 W/m2
19:44 46.1 °F /  7.8 °C 42.2 °F /  5.7 °C 30.23in /  1023.6hPa ENE 2.1mph /  3.4km/h 11mph /  17.7km/h 86% 0.00in /  0mm 0 W/m2
19:49 46.1 °F /  7.8 °C 42.2 °F /  5.7 °C 30.23in /  1023.6hPa ENE 2.7mph /  4.3km/h 11mph /  17.7km/h 86% 0.00in /  0mm 0 W/m2
19:54 46 °F /  7.8 °C 42.1 °F /  5.6 °C 30.23in /  1023.6hPa ENE 2.7mph /  4.3km/h 10mph /  16.1km/h 86% 0.00in /  0mm 0 W/m2
19:59 46 °F /  7.8 °C 42.1 °F /  5.6 °C 30.23in /  1023.6hPa East 2.2mph /  3.5km/h 10mph /  16.1km/h 86% 0.00in /  0mm 0 W/m2
20:04 46 °F /  7.8 °C 42.1 °F /  5.6 °C 30.23in /  1023.6hPa East 4.1mph /  6.6km/h 9mph /  14.5km/h 86% 0.00in /  0mm 0 W/m2
20:09 46 °F /  7.8 °C 42.1 °F /  5.6 °C 30.23in /  1023.6hPa East 2.3mph /  3.7km/h 9mph /  14.5km/h 86% 0.00in /  0mm 0 W/m2
20:14 45.9 °F /  7.7 °C 42.3 °F /  5.7 °C 30.23in /  1023.6hPa East 2.6mph /  4.2km/h 9mph /  14.5km/h 86.9% 0.00in /  0mm 0 W/m2
20:19 45.9 °F /  7.7 °C 42.3 °F /  5.7 °C 30.23in /  1023.6hPa ENE 2.7mph /  4.3km/h 10mph /  16.1km/h 87% 0.00in /  0mm 0 W/m2
20:24 46 °F /  7.8 °C 42.3 °F /  5.7 °C 30.23in /  1023.6hPa ENE 4.7mph /  7.6km/h 12mph /  19.3km/h 87% 0.00in /  0mm 0 W/m2
20:29 45.9 °F /  7.7 °C 42.3 °F /  5.7 °C 30.23in /  1023.6hPa ENE 2.5mph /  4km/h 9mph /  14.5km/h 87% 0.00in /  0mm 0 W/m2
20:34 45.9 °F /  7.7 °C 42.3 °F /  5.7 °C 30.23in /  1023.6hPa ENE 2.1mph /  3.4km/h 10mph /  16.1km/h 87% 0.00in /  0mm 0 W/m2
20:39 45.9 °F /  7.7 °C 42.3 °F /  5.7 °C 30.23in /  1023.6hPa East 3mph /  4.8km/h 10mph /  16.1km/h 87% 0.00in /  0mm 0 W/m2
20:44 45.9 °F /  7.7 °C 42.3 °F /  5.7 °C 30.23in /  1023.6hPa ESE 2.9mph /  4.7km/h 9mph /  14.5km/h 87% 0.00in /  0mm 0 W/m2
20:49 45.9 °F /  7.7 °C 42.3 °F /  5.7 °C 30.23in /  1023.6hPa East 3.9mph /  6.3km/h 9mph /  14.5km/h 87% 0.00in /  0mm 0 W/m2
20:54 45.9 °F /  7.7 °C 42.3 °F /  5.7 °C 30.24in /  1023.9hPa East 4.3mph /  6.9km/h 10mph /  16.1km/h 87% 0.00in /  0mm 0 W/m2
20:59 45.9 °F /  7.7 °C 42.3 °F /  5.7 °C 30.24in /  1023.9hPa ENE 4.5mph /  7.2km/h 11mph /  17.7km/h 87% 0.00in /  0mm 0 W/m2
21:04 45.9 °F /  7.7 °C 42.2 °F /  5.7 °C 30.24in /  1023.9hPa East 5mph /  8km/h 11mph /  17.7km/h 86.5% 0.00in /  0mm 0 W/m2
21:09 46 °F /  7.8 °C 42.1 °F /  5.6 °C 30.24in /  1023.9hPa ENE 5.9mph /  9.5km/h 13mph /  20.9km/h 86% 0.00in /  0mm 0 W/m2
21:14 46 °F /  7.8 °C 42.1 °F /  5.6 °C 30.24in /  1023.9hPa ENE 4.3mph /  6.9km/h 13mph /  20.9km/h 86% 0.00in /  0mm 0 W/m2
21:19 46 °F /  7.8 °C 42.1 °F /  5.6 °C 30.24in /  1023.9hPa ENE 6.1mph /  9.8km/h 13mph /  20.9km/h 86% 0.00in /  0mm 0 W/m2
21:24 46 °F /  7.8 °C 42 °F /  5.6 °C 30.23in /  1023.6hPa ENE 3.6mph /  5.8km/h 10mph /  16.1km/h 86% 0.00in /  0mm 0 W/m2
21:29 45.9 °F /  7.7 °C 41.9 °F /  5.5 °C 30.24in /  1023.9hPa ENE 6.8mph /  10.9km/h 18mph /  29km/h 86% 0.00in /  0mm 0 W/m2
21:34 45.9 °F /  7.7 °C 41.9 °F /  5.5 °C 30.24in /  1023.9hPa ENE 2.7mph /  4.3km/h 10mph /  16.1km/h 86% 0.00in /  0mm 0 W/m2
21:39 45.9 °F /  7.7 °C 41.9 °F /  5.5 °C 30.24in /  1023.9hPa East 5.1mph /  8.2km/h 12mph /  19.3km/h 86% 0.00in /  0mm 0 W/m2
21:44 45.9 °F /  7.7 °C 41.9 °F /  5.5 °C 30.24in /  1023.9hPa ENE 4.5mph /  7.2km/h 11mph /  17.7km/h 86% 0.00in /  0mm 0 W/m2
21:49 45.9 °F /  7.7 °C 42 °F /  5.6 °C 30.23in /  1023.6hPa East 4.7mph /  7.6km/h 14mph /  22.5km/h 86% 0.00in /  0mm 0 W/m2
21:54 46 °F /  7.8 °C 42.1 °F /  5.6 °C 30.23in /  1023.6hPa East 3.8mph /  6.1km/h 11mph /  17.7km/h 86% 0.00in /  0mm 0 W/m2
21:59 46 °F /  7.8 °C 42 °F /  5.6 °C 30.23in /  1023.6hPa ENE 2.7mph /  4.3km/h 11mph /  17.7km/h 85.8% 0.00in /  0mm 0 W/m2
22:04 45.9 °F /  7.7 °C 41.7 °F /  5.4 °C 30.23in /  1023.6hPa East 2.9mph /  4.7km/h 8mph /  12.9km/h 85.3% 0.00in /  0mm 0 W/m2
22:09 45.9 °F /  7.7 °C 41.5 °F /  5.3 °C 30.23in /  1023.6hPa ENE 3.8mph /  6.1km/h 13mph /  20.9km/h 85% 0.00in /  0mm 0 W/m2
22:14 45.9 °F /  7.7 °C 41.5 °F /  5.3 °C 30.23in /  1023.6hPa East 5.7mph /  9.2km/h 14mph /  22.5km/h 85% 0.00in /  0mm 0 W/m2
22:19 45.9 °F /  7.7 °C 41.5 °F /  5.3 °C 30.23in /  1023.6hPa ENE 5.7mph /  9.2km/h 14mph /  22.5km/h 85% 0.00in /  0mm 0 W/m2
22:24 45.9 °F /  7.7 °C 41.5 °F /  5.3 °C 30.23in /  1023.6hPa ENE 4.4mph /  7.1km/h 14mph /  22.5km/h 85% 0.00in /  0mm 0 W/m2
22:29 45.9 °F /  7.7 °C 41.5 °F /  5.3 °C 30.23in /  1023.6hPa ENE 4.9mph /  7.9km/h 14mph /  22.5km/h 85% 0.00in /  0mm 0 W/m2
22:34 45.9 °F /  7.7 °C 41.5 °F /  5.3 °C 30.23in /  1023.6hPa ENE 5.2mph /  8.4km/h 12mph /  19.3km/h 85% 0.00in /  0mm 0 W/m2
22:39 45.8 °F /  7.7 °C 41.5 °F /  5.3 °C 30.23in /  1023.6hPa East 4.4mph /  7.1km/h 14mph /  22.5km/h 85% 0.00in /  0mm 0 W/m2
22:44 45.8 °F /  7.7 °C 41.5 °F /  5.3 °C 30.23in /  1023.6hPa ENE 4.2mph /  6.8km/h 16mph /  25.7km/h 85% 0.00in /  0mm 0 W/m2
22:49 45.8 °F /  7.7 °C 41.4 °F /  5.2 °C 30.23in /  1023.6hPa ENE 5.4mph /  8.7km/h 11mph /  17.7km/h 85% 0.00in /  0mm 0 W/m2
22:54 45.9 °F /  7.7 °C 41.5 °F /  5.3 °C 30.23in /  1023.6hPa ENE 3.6mph /  5.8km/h 12mph /  19.3km/h 85% 0.00in /  0mm 0 W/m2
22:59 45.8 °F /  7.7 °C 41.5 °F /  5.3 °C 30.23in /  1023.6hPa ENE 5mph /  8km/h 11mph /  17.7km/h 85% 0.00in /  0mm 0 W/m2
23:04 45.8 °F /  7.7 °C 41.5 °F /  5.3 °C 30.23in /  1023.6hPa ENE 4.7mph /  7.6km/h 15mph /  24.1km/h 85% 0.00in /  0mm 0 W/m2
23:09 45.7 °F /  7.6 °C 41.4 °F /  5.2 °C 30.23in /  1023.6hPa ENE 3.2mph /  5.1km/h 11mph /  17.7km/h 85% 0.00in /  0mm 0 W/m2
23:14 45.7 °F /  7.6 °C 41.4 °F /  5.2 °C 30.23in /  1023.6hPa ENE 3.4mph /  5.5km/h 11mph /  17.7km/h 85% 0.00in /  0mm 0 W/m2
23:19 45.7 °F /  7.6 °C 41.4 °F /  5.2 °C 30.23in /  1023.6hPa ENE 4.4mph /  7.1km/h 10mph /  16.1km/h 85% 0.00in /  0mm 0 W/m2
23:24 45.7 °F /  7.6 °C 41.4 °F /  5.2 °C 30.24in /  1023.9hPa ENE 4.3mph /  6.9km/h 11mph /  17.7km/h 85% 0.00in /  0mm 0 W/m2
23:29 45.7 °F /  7.6 °C 41.4 °F /  5.2 °C 30.24in /  1023.9hPa ENE 5.2mph /  8.4km/h 13mph /  20.9km/h 85% 0.00in /  0mm 0 W/m2
23:34 45.7 °F /  7.6 °C 41.4 °F /  5.2 °C 30.24in /  1023.9hPa ENE 4.2mph /  6.8km/h 10mph /  16.1km/h 85% 0.00in /  0mm 0 W/m2
23:39 45.7 °F /  7.6 °C 41.4 °F /  5.2 °C 30.23in /  1023.6hPa ENE 3.3mph /  5.3km/h 10mph /  16.1km/h 85% 0.00in /  0mm 0 W/m2
23:44 45.7 °F /  7.6 °C 41.4 °F /  5.2 °C 30.23in /  1023.6hPa ENE 3.8mph /  6.1km/h 9mph /  14.5km/h 85% 0.00in /  0mm 0 W/m2
23:49 45.6 °F /  7.6 °C 41.3 °F /  5.2 °C 30.24in /  1023.9hPa East 4.6mph /  7.4km/h 10mph /  16.1km/h 85% 0.00in /  0mm 0 W/m2
23:54 45.5 °F /  7.5 °C 41.4 °F /  5.2 °C 30.24in /  1023.9hPa ENE 3.6mph /  5.8km/h 9mph /  14.5km/h 85.7% 0.00in /  0mm 0 W/m2
23:59 45.5 °F /  7.5 °C 41.5 °F /  5.3 °C 30.23in /  1023.6hPa East 2.9mph /  4.7km/h 9mph /  14.5km/h 86% 0.00in /  0mm 0 W/m2
Bath Spa Weather
Compliments of Weather Underground - 2 mb